sensor_id;sensor_type;location;lat;lon;timestamp;P1;durP1;ratioP1;P2;durP2;ratioP2
7116;SDS011;3600;48.568;7.870;2023-11-21T00:02:21;6.10;;;1.83;;
7116;SDS011;3600;48.568;7.870;2023-11-21T00:04:48;6.22;;;2.25;;
7116;SDS011;3600;48.568;7.870;2023-11-21T00:07:15;4.88;;;1.90;;
7116;SDS011;3600;48.568;7.870;2023-11-21T00:09:43;6.90;;;2.40;;
7116;SDS011;3600;48.568;7.870;2023-11-21T00:12:10;4.97;;;2.22;;
7116;SDS011;3600;48.568;7.870;2023-11-21T00:14:37;4.47;;;2.22;;
7116;SDS011;3600;48.568;7.870;2023-11-21T00:17:05;5.28;;;1.95;;
7116;SDS011;3600;48.568;7.870;2023-11-21T00:19:32;6.53;;;2.00;;
7116;SDS011;3600;48.568;7.870;2023-11-21T00:22:01;3.80;;;1.48;;
7116;SDS011;3600;48.568;7.870;2023-11-21T00:24:28;5.50;;;1.80;;
7116;SDS011;3600;48.568;7.870;2023-11-21T00:26:55;6.15;;;1.98;;
7116;SDS011;3600;48.568;7.870;2023-11-21T00:29:21;5.60;;;2.15;;
7116;SDS011;3600;48.568;7.870;2023-11-21T00:31:48;1.98;;;1.58;;
7116;SDS011;3600;48.568;7.870;2023-11-21T00:34:15;6.97;;;2.33;;
7116;SDS011;3600;48.568;7.870;2023-11-21T00:36:42;6.30;;;1.95;;
7116;SDS011;3600;48.568;7.870;2023-11-21T00:39:09;5.35;;;1.95;;
7116;SDS011;3600;48.568;7.870;2023-11-21T00:41:36;6.60;;;2.28;;
7116;SDS011;3600;48.568;7.870;2023-11-21T00:44:03;4.72;;;2.00;;
7116;SDS011;3600;48.568;7.870;2023-11-21T00:46:31;9.45;;;2.33;;
7116;SDS011;3600;48.568;7.870;2023-11-21T00:48:58;4.07;;;1.85;;
7116;SDS011;3600;48.568;7.870;2023-11-21T00:51:25;3.50;;;1.63;;
7116;SDS011;3600;48.568;7.870;2023-11-21T00:53:52;5.10;;;2.05;;
7116;SDS011;3600;48.568;7.870;2023-11-21T00:56:19;2.95;;;1.42;;
7116;SDS011;3600;48.568;7.870;2023-11-21T00:58:45;5.78;;;1.98;;
7116;SDS011;3600;48.568;7.870;2023-11-21T01:01:16;2.33;;;1.30;;
7116;SDS011;3600;48.568;7.870;2023-11-21T01:03:44;4.03;;;1.20;;
7116;SDS011;3600;48.568;7.870;2023-11-21T01:06:12;1.88;;;1.60;;
7116;SDS011;3600;48.568;7.870;2023-11-21T01:08:41;3.63;;;1.65;;
7116;SDS011;3600;48.568;7.870;2023-11-21T01:11:10;6.57;;;2.08;;
7116;SDS011;3600;48.568;7.870;2023-11-21T01:13:39;3.20;;;1.50;;
7116;SDS011;3600;48.568;7.870;2023-11-21T01:16:06;5.20;;;1.50;;
7116;SDS011;3600;48.568;7.870;2023-11-21T01:18:34;4.82;;;1.65;;
7116;SDS011;3600;48.568;7.870;2023-11-21T01:21:02;4.78;;;1.50;;
7116;SDS011;3600;48.568;7.870;2023-11-21T01:23:29;5.97;;;1.38;;
7116;SDS011;3600;48.568;7.870;2023-11-21T01:25:56;5.32;;;1.73;;
7116;SDS011;3600;48.568;7.870;2023-11-21T01:28:23;2.53;;;1.45;;
7116;SDS011;3600;48.568;7.870;2023-11-21T01:30:50;3.20;;;1.40;;
7116;SDS011;3600;48.568;7.870;2023-11-21T01:33:17;5.05;;;1.42;;
7116;SDS011;3600;48.568;7.870;2023-11-21T01:35:45;4.63;;;1.30;;
7116;SDS011;3600;48.568;7.870;2023-11-21T01:38:12;4.10;;;1.75;;
7116;SDS011;3600;48.568;7.870;2023-11-21T01:40:40;4.07;;;1.30;;
7116;SDS011;3600;48.568;7.870;2023-11-21T01:43:07;3.38;;;1.30;;
7116;SDS011;3600;48.568;7.870;2023-11-21T01:45:35;5.03;;;1.98;;
7116;SDS011;3600;48.568;7.870;2023-11-21T01:48:02;2.90;;;1.63;;
7116;SDS011;3600;48.568;7.870;2023-11-21T01:50:29;3.30;;;1.33;;
7116;SDS011;3600;48.568;7.870;2023-11-21T01:52:57;1.48;;;1.15;;
7116;SDS011;3600;48.568;7.870;2023-11-21T01:55:24;2.70;;;1.25;;
7116;SDS011;3600;48.568;7.870;2023-11-21T01:57:54;5.32;;;1.52;;
7116;SDS011;3600;48.568;7.870;2023-11-21T02:00:23;2.80;;;1.55;;
7116;SDS011;3600;48.568;7.870;2023-11-21T02:02:50;3.67;;;1.50;;
7116;SDS011;3600;48.568;7.870;2023-11-21T02:05:18;2.92;;;1.50;;
7116;SDS011;3600;48.568;7.870;2023-11-21T02:07:46;5.72;;;1.20;;
7116;SDS011;3600;48.568;7.870;2023-11-21T02:10:14;3.88;;;1.80;;
7116;SDS011;3600;48.568;7.870;2023-11-21T02:12:42;3.65;;;1.90;;
7116;SDS011;3600;48.568;7.870;2023-11-21T02:15:10;1.40;;;1.20;;
7116;SDS011;3600;48.568;7.870;2023-11-21T02:17:53;6.85;;;1.77;;
7116;SDS011;3600;48.568;7.870;2023-11-21T02:20:21;3.92;;;1.67;;
7116;SDS011;3600;48.568;7.870;2023-11-21T02:22:52;2.70;;;1.20;;
7116;SDS011;3600;48.568;7.870;2023-11-21T02:25:28;4.78;;;2.08;;
7116;SDS011;3600;48.568;7.870;2023-11-21T02:27:57;4.05;;;1.58;;
7116;SDS011;3600;48.568;7.870;2023-11-21T02:30:25;4.45;;;1.70;;
7116;SDS011;3600;48.568;7.870;2023-11-21T02:32:54;6.40;;;2.50;;
7116;SDS011;3600;48.568;7.870;2023-11-21T02:35:23;4.53;;;1.77;;
7116;SDS011;3600;48.568;7.870;2023-11-21T02:37:52;3.42;;;1.65;;
7116;SDS011;3600;48.568;7.870;2023-11-21T02:40:20;5.35;;;2.10;;
7116;SDS011;3600;48.568;7.870;2023-11-21T02:42:47;2.63;;;1.52;;
7116;SDS011;3600;48.568;7.870;2023-11-21T02:45:14;3.67;;;1.48;;
7116;SDS011;3600;48.568;7.870;2023-11-21T02:47:43;2.85;;;2.08;;
7116;SDS011;3600;48.568;7.870;2023-11-21T02:50:11;4.18;;;1.70;;
7116;SDS011;3600;48.568;7.870;2023-11-21T02:52:38;3.17;;;1.85;;
7116;SDS011;3600;48.568;7.870;2023-11-21T02:55:06;4.20;;;1.63;;
7116;SDS011;3600;48.568;7.870;2023-11-21T02:57:33;4.22;;;1.45;;
7116;SDS011;3600;48.568;7.870;2023-11-21T03:00:00;3.30;;;1.63;;
7116;SDS011;3600;48.568;7.870;2023-11-21T03:02:31;6.05;;;1.58;;
7116;SDS011;3600;48.568;7.870;2023-11-21T03:05:06;3.20;;;1.60;;
7116;SDS011;3600;48.568;7.870;2023-11-21T03:07:36;3.22;;;1.40;;
7116;SDS011;3600;48.568;7.870;2023-11-21T03:10:06;3.58;;;1.38;;
7116;SDS011;3600;48.568;7.870;2023-11-21T03:12:36;4.90;;;1.67;;
7116;SDS011;3600;48.568;7.870;2023-11-21T03:15:07;4.10;;;1.35;;
7116;SDS011;3600;48.568;7.870;2023-11-21T03:17:37;3.70;;;1.67;;
7116;SDS011;3600;48.568;7.870;2023-11-21T03:20:05;4.20;;;1.75;;
7116;SDS011;3600;48.568;7.870;2023-11-21T03:22:32;5.35;;;1.83;;
7116;SDS011;3600;48.568;7.870;2023-11-21T03:24:59;4.20;;;2.13;;
7116;SDS011;3600;48.568;7.870;2023-11-21T03:27:26;2.35;;;1.60;;
7116;SDS011;3600;48.568;7.870;2023-11-21T03:29:53;5.40;;;1.90;;
7116;SDS011;3600;48.568;7.870;2023-11-21T03:32:21;3.33;;;1.48;;
7116;SDS011;3600;48.568;7.870;2023-11-21T03:34:55;4.25;;;1.80;;
7116;SDS011;3600;48.568;7.870;2023-11-21T03:37:23;3.78;;;1.60;;
7116;SDS011;3600;48.568;7.870;2023-11-21T03:39:55;2.65;;;1.70;;
7116;SDS011;3600;48.568;7.870;2023-11-21T03:42:23;4.63;;;1.55;;
7116;SDS011;3600;48.568;7.870;2023-11-21T03:44:53;3.42;;;1.50;;
7116;SDS011;3600;48.568;7.870;2023-11-21T03:47:20;4.50;;;1.73;;
7116;SDS011;3600;48.568;7.870;2023-11-21T03:49:47;5.22;;;1.63;;
7116;SDS011;3600;48.568;7.870;2023-11-21T03:52:14;1.75;;;1.42;;
7116;SDS011;3600;48.568;7.870;2023-11-21T03:54:40;3.90;;;1.50;;
7116;SDS011;3600;48.568;7.870;2023-11-21T03:57:07;5.22;;;2.00;;
7116;SDS011;3600;48.568;7.870;2023-11-21T03:59:35;4.13;;;1.85;;
7116;SDS011;3600;48.568;7.870;2023-11-21T04:02:02;4.82;;;1.48;;
7116;SDS011;3600;48.568;7.870;2023-11-21T04:04:29;2.58;;;1.75;;
7116;SDS011;3600;48.568;7.870;2023-11-21T04:06:56;4.38;;;1.80;;
7116;SDS011;3600;48.568;7.870;2023-11-21T04:09:23;4.43;;;1.75;;
7116;SDS011;3600;48.568;7.870;2023-11-21T04:11:51;2.88;;;1.48;;
7116;SDS011;3600;48.568;7.870;2023-11-21T04:14:19;3.00;;;1.80;;
7116;SDS011;3600;48.568;7.870;2023-11-21T04:16:46;5.15;;;2.45;;
7116;SDS011;3600;48.568;7.870;2023-11-21T04:19:13;6.28;;;2.10;;
7116;SDS011;3600;48.568;7.870;2023-11-21T04:21:41;2.58;;;1.40;;
7116;SDS011;3600;48.568;7.870;2023-11-21T04:24:11;3.15;;;1.40;;
7116;SDS011;3600;48.568;7.870;2023-11-21T04:26:38;2.80;;;1.42;;
7116;SDS011;3600;48.568;7.870;2023-11-21T04:29:05;5.90;;;1.77;;
7116;SDS011;3600;48.568;7.870;2023-11-21T04:31:32;1.42;;;1.33;;
7116;SDS011;3600;48.568;7.870;2023-11-21T04:33:58;3.88;;;1.75;;
7116;SDS011;3600;48.568;7.870;2023-11-21T04:36:26;2.10;;;1.70;;
7116;SDS011;3600;48.568;7.870;2023-11-21T04:38:53;3.00;;;1.20;;
7116;SDS011;3600;48.568;7.870;2023-11-21T04:41:19;5.97;;;1.80;;
7116;SDS011;3600;48.568;7.870;2023-11-21T04:43:46;3.75;;;1.65;;
7116;SDS011;3600;48.568;7.870;2023-11-21T04:46:13;4.32;;;1.60;;
7116;SDS011;3600;48.568;7.870;2023-11-21T04:48:40;3.13;;;1.30;;
7116;SDS011;3600;48.568;7.870;2023-11-21T04:51:07;5.03;;;1.52;;
7116;SDS011;3600;48.568;7.870;2023-11-21T04:53:34;1.88;;;1.45;;
7116;SDS011;3600;48.568;7.870;2023-11-21T04:56:01;3.67;;;1.45;;
7116;SDS011;3600;48.568;7.870;2023-11-21T04:58:28;1.63;;;1.25;;
7116;SDS011;3600;48.568;7.870;2023-11-21T05:00:57;3.97;;;1.77;;
7116;SDS011;3600;48.568;7.870;2023-11-21T05:03:24;1.92;;;1.10;;
7116;SDS011;3600;48.568;7.870;2023-11-21T05:05:51;2.33;;;1.38;;
7116;SDS011;3600;48.568;7.870;2023-11-21T05:08:18;2.35;;;1.45;;
7116;SDS011;3600;48.568;7.870;2023-11-21T05:10:46;2.70;;;1.10;;
7116;SDS011;3600;48.568;7.870;2023-11-21T05:13:13;2.70;;;1.40;;
7116;SDS011;3600;48.568;7.870;2023-11-21T05:15:40;2.03;;;1.58;;
7116;SDS011;3600;48.568;7.870;2023-11-21T05:18:07;4.38;;;1.50;;
7116;SDS011;3600;48.568;7.870;2023-11-21T05:20:34;1.75;;;1.10;;
7116;SDS011;3600;48.568;7.870;2023-11-21T05:23:01;2.72;;;1.30;;
7116;SDS011;3600;48.568;7.870;2023-11-21T05:25:28;2.10;;;1.40;;
7116;SDS011;3600;48.568;7.870;2023-11-21T05:27:55;3.38;;;1.40;;
7116;SDS011;3600;48.568;7.870;2023-11-21T05:30:22;2.42;;;1.58;;
7116;SDS011;3600;48.568;7.870;2023-11-21T05:32:49;2.33;;;1.45;;
7116;SDS011;3600;48.568;7.870;2023-11-21T05:35:16;2.40;;;1.48;;
7116;SDS011;3600;48.568;7.870;2023-11-21T05:37:44;1.40;;;1.30;;
7116;SDS011;3600;48.568;7.870;2023-11-21T05:40:12;3.13;;;1.60;;
7116;SDS011;3600;48.568;7.870;2023-11-21T05:42:39;2.30;;;1.60;;
7116;SDS011;3600;48.568;7.870;2023-11-21T05:45:07;2.05;;;1.83;;
7116;SDS011;3600;48.568;7.870;2023-11-21T05:47:39;2.65;;;1.38;;
7116;SDS011;3600;48.568;7.870;2023-11-21T05:50:08;2.92;;;1.20;;
7116;SDS011;3600;48.568;7.870;2023-11-21T05:52:36;2.72;;;1.17;;
7116;SDS011;3600;48.568;7.870;2023-11-21T05:55:05;2.13;;;1.33;;
7116;SDS011;3600;48.568;7.870;2023-11-21T05:57:36;2.53;;;1.48;;
7116;SDS011;3600;48.568;7.870;2023-11-21T06:00:04;3.00;;;1.48;;
7116;SDS011;3600;48.568;7.870;2023-11-21T06:02:42;2.05;;;1.63;;
7116;SDS011;3600;48.568;7.870;2023-11-21T06:05:09;3.40;;;1.42;;
7116;SDS011;3600;48.568;7.870;2023-11-21T06:07:36;1.60;;;1.50;;
7116;SDS011;3600;48.568;7.870;2023-11-21T06:10:04;2.42;;;1.67;;
7116;SDS011;3600;48.568;7.870;2023-11-21T06:12:35;4.00;;;1.88;;
7116;SDS011;3600;48.568;7.870;2023-11-21T06:15:05;2.92;;;1.88;;
7116;SDS011;3600;48.568;7.870;2023-11-21T06:17:35;2.17;;;1.70;;
7116;SDS011;3600;48.568;7.870;2023-11-21T06:20:03;3.50;;;2.30;;
7116;SDS011;3600;48.568;7.870;2023-11-21T06:22:39;2.95;;;2.65;;
7116;SDS011;3600;48.568;7.870;2023-11-21T06:25:07;3.20;;;2.00;;
7116;SDS011;3600;48.568;7.870;2023-11-21T06:27:38;3.28;;;2.28;;
7116;SDS011;3600;48.568;7.870;2023-11-21T06:30:06;4.43;;;2.08;;
7116;SDS011;3600;48.568;7.870;2023-11-21T06:32:36;2.42;;;1.90;;
7116;SDS011;3600;48.568;7.870;2023-11-21T06:35:03;3.00;;;1.88;;
7116;SDS011;3600;48.568;7.870;2023-11-21T06:37:31;2.13;;;1.63;;
7116;SDS011;3600;48.568;7.870;2023-11-21T06:39:59;2.08;;;1.90;;
7116;SDS011;3600;48.568;7.870;2023-11-21T06:42:26;2.95;;;1.77;;
7116;SDS011;3600;48.568;7.870;2023-11-21T06:44:55;2.40;;;2.00;;
7116;SDS011;3600;48.568;7.870;2023-11-21T06:47:25;4.00;;;2.15;;
7116;SDS011;3600;48.568;7.870;2023-11-21T06:49:53;2.53;;;2.08;;
7116;SDS011;3600;48.568;7.870;2023-11-21T06:52:20;2.17;;;2.05;;
7116;SDS011;3600;48.568;7.870;2023-11-21T06:54:47;3.05;;;1.85;;
7116;SDS011;3600;48.568;7.870;2023-11-21T06:57:16;2.85;;;1.70;;
7116;SDS011;3600;48.568;7.870;2023-11-21T06:59:43;2.13;;;1.92;;
7116;SDS011;3600;48.568;7.870;2023-11-21T07:02:10;2.95;;;2.30;;
7116;SDS011;3600;48.568;7.870;2023-11-21T07:04:37;3.95;;;1.80;;
7116;SDS011;3600;48.568;7.870;2023-11-21T07:07:06;2.20;;;2.00;;
7116;SDS011;3600;48.568;7.870;2023-11-21T07:09:35;4.47;;;2.08;;
7116;SDS011;3600;48.568;7.870;2023-11-21T07:12:02;2.17;;;1.92;;
7116;SDS011;3600;48.568;7.870;2023-11-21T07:14:32;3.65;;;2.70;;
7116;SDS011;3600;48.568;7.870;2023-11-21T07:17:02;4.40;;;2.22;;
7116;SDS011;3600;48.568;7.870;2023-11-21T07:19:32;4.00;;;1.80;;
7116;SDS011;3600;48.568;7.870;2023-11-21T07:21:59;2.50;;;1.67;;
7116;SDS011;3600;48.568;7.870;2023-11-21T07:24:26;2.85;;;1.63;;
7116;SDS011;3600;48.568;7.870;2023-11-21T07:26:53;2.10;;;1.67;;
7116;SDS011;3600;48.568;7.870;2023-11-21T07:29:23;1.95;;;1.63;;
7116;SDS011;3600;48.568;7.870;2023-11-21T07:31:58;5.15;;;2.08;;
7116;SDS011;3600;48.568;7.870;2023-11-21T07:34:26;1.52;;;1.42;;
7116;SDS011;3600;48.568;7.870;2023-11-21T07:36:54;1.98;;;1.65;;
7116;SDS011;3600;48.568;7.870;2023-11-21T07:39:37;2.33;;;2.00;;
7116;SDS011;3600;48.568;7.870;2023-11-21T07:42:29;3.10;;;2.20;;
7116;SDS011;3600;48.568;7.870;2023-11-21T07:45:16;2.70;;;1.98;;
7116;SDS011;3600;48.568;7.870;2023-11-21T07:48:21;3.88;;;2.40;;
7116;SDS011;3600;48.568;7.870;2023-11-21T07:50:49;3.20;;;2.47;;
7116;SDS011;3600;48.568;7.870;2023-11-21T07:53:15;4.05;;;2.58;;
7116;SDS011;3600;48.568;7.870;2023-11-21T07:55:42;2.92;;;2.60;;
7116;SDS011;3600;48.568;7.870;2023-11-21T07:58:13;4.18;;;2.90;;
7116;SDS011;3600;48.568;7.870;2023-11-21T08:00:40;3.17;;;2.85;;
7116;SDS011;3600;48.568;7.870;2023-11-21T08:03:07;2.83;;;2.63;;
7116;SDS011;3600;48.568;7.870;2023-11-21T08:05:34;4.68;;;2.30;;
7116;SDS011;3600;48.568;7.870;2023-11-21T08:08:03;2.85;;;2.50;;
7116;SDS011;3600;48.568;7.870;2023-11-21T08:10:30;3.03;;;2.78;;
7116;SDS011;3600;48.568;7.870;2023-11-21T08:12:57;3.50;;;3.20;;
7116;SDS011;3600;48.568;7.870;2023-11-21T08:15:24;3.85;;;3.22;;
7116;SDS011;3600;48.568;7.870;2023-11-21T08:17:51;4.90;;;2.95;;
7116;SDS011;3600;48.568;7.870;2023-11-21T08:20:18;3.22;;;2.95;;
7116;SDS011;3600;48.568;7.870;2023-11-21T08:22:45;4.60;;;3.25;;
7116;SDS011;3600;48.568;7.870;2023-11-21T08:25:14;3.50;;;3.00;;
7116;SDS011;3600;48.568;7.870;2023-11-21T08:27:41;2.97;;;2.78;;
7116;SDS011;3600;48.568;7.870;2023-11-21T08:30:08;4.65;;;3.17;;
7116;SDS011;3600;48.568;7.870;2023-11-21T08:32:35;4.13;;;3.17;;
7116;SDS011;3600;48.568;7.870;2023-11-21T08:35:02;3.92;;;3.38;;
7116;SDS011;3600;48.568;7.870;2023-11-21T08:37:29;5.60;;;3.20;;
7116;SDS011;3600;48.568;7.870;2023-11-21T08:39:59;3.50;;;2.83;;
7116;SDS011;3600;48.568;7.870;2023-11-21T08:42:32;3.28;;;3.03;;
7116;SDS011;3600;48.568;7.870;2023-11-21T08:45:00;3.92;;;3.33;;
7116;SDS011;3600;48.568;7.870;2023-11-21T09:42:36;3.78;;;3.15;;
7116;SDS011;3600;48.568;7.870;2023-11-21T09:46:28;4.45;;;3.40;;
7116;SDS011;3600;48.568;7.870;2023-11-21T09:49:54;3.47;;;3.17;;
7116;SDS011;3600;48.568;7.870;2023-11-21T10:04:14;7.60;;;5.93;;
7116;SDS011;3600;48.568;7.870;2023-11-21T10:10:44;6.32;;;5.72;;
7116;SDS011;3600;48.568;7.870;2023-11-21T10:13:48;5.75;;;5.15;;
7116;SDS011;3600;48.568;7.870;2023-11-21T10:17:21;5.07;;;4.65;;
7116;SDS011;3600;48.568;7.870;2023-11-21T10:53:00;4.10;;;3.63;;
7116;SDS011;3600;48.568;7.870;2023-11-21T11:04:39;3.00;;;2.70;;
7116;SDS011;3600;48.568;7.870;2023-11-21T11:20:34;2.25;;;2.15;;
7116;SDS011;3600;48.568;7.870;2023-11-21T11:26:08;1.98;;;1.77;;
7116;SDS011;3600;48.568;7.870;2023-11-21T11:31:48;2.55;;;2.45;;
7116;SDS011;3600;48.568;7.870;2023-11-21T11:37:00;6.57;;;5.32;;
7116;SDS011;3600;48.568;7.870;2023-11-21T11:39:38;4.07;;;3.60;;
7116;SDS011;3600;48.568;7.870;2023-11-21T11:42:13;5.60;;;5.10;;
7116;SDS011;3600;48.568;7.870;2023-11-21T11:47:22;5.13;;;4.72;;
7116;SDS011;3600;48.568;7.870;2023-11-21T11:49:58;3.88;;;3.58;;
7116;SDS011;3600;48.568;7.870;2023-11-21T11:52:47;5.22;;;4.82;;
7116;SDS011;3600;48.568;7.870;2023-11-21T11:55:19;7.05;;;6.45;;
7116;SDS011;3600;48.568;7.870;2023-11-21T11:57:53;5.05;;;4.60;;
7116;SDS011;3600;48.568;7.870;2023-11-21T12:02:57;4.97;;;4.57;;
7116;SDS011;3600;48.568;7.870;2023-11-21T12:05:28;4.15;;;3.75;;
7116;SDS011;3600;48.568;7.870;2023-11-21T12:08:00;4.43;;;3.78;;
7116;SDS011;3600;48.568;7.870;2023-11-21T12:10:30;4.13;;;3.22;;
7116;SDS011;3600;48.568;7.870;2023-11-21T12:13:16;3.58;;;3.25;;
7116;SDS011;3600;48.568;7.870;2023-11-21T12:15:43;3.33;;;3.13;;
7116;SDS011;3600;48.568;7.870;2023-11-21T12:18:11;3.08;;;2.88;;
7116;SDS011;3600;48.568;7.870;2023-11-21T12:20:38;3.70;;;3.40;;
7116;SDS011;3600;48.568;7.870;2023-11-21T12:23:07;3.88;;;2.85;;
7116;SDS011;3600;48.568;7.870;2023-11-21T12:25:36;3.35;;;2.50;;
7116;SDS011;3600;48.568;7.870;2023-11-21T12:28:03;3.25;;;2.90;;
7116;SDS011;3600;48.568;7.870;2023-11-21T12:30:30;2.97;;;2.17;;
7116;SDS011;3600;48.568;7.870;2023-11-21T12:33:04;3.67;;;2.67;;
7116;SDS011;3600;48.568;7.870;2023-11-21T12:35:34;2.72;;;2.50;;
7116;SDS011;3600;48.568;7.870;2023-11-21T12:38:02;2.55;;;1.25;;
7116;SDS011;3600;48.568;7.870;2023-11-21T12:40:30;1.10;;;1.10;;
7116;SDS011;3600;48.568;7.870;2023-11-21T12:42:57;1.42;;;1.33;;
7116;SDS011;3600;48.568;7.870;2023-11-21T12:45:28;0.95;;;0.82;;
7116;SDS011;3600;48.568;7.870;2023-11-21T12:48:02;0.80;;;0.80;;
7116;SDS011;3600;48.568;7.870;2023-11-21T12:50:35;0.70;;;0.70;;
7116;SDS011;3600;48.568;7.870;2023-11-21T12:53:04;0.60;;;0.60;;
7116;SDS011;3600;48.568;7.870;2023-11-21T12:55:35;7.25;;;5.65;;
7116;SDS011;3600;48.568;7.870;2023-11-21T12:58:06;9.85;;;5.85;;
7116;SDS011;3600;48.568;7.870;2023-11-21T13:00:39;11.43;;;7.47;;
7116;SDS011;3600;48.568;7.870;2023-11-21T13:03:13;1.67;;;1.58;;
7116;SDS011;3600;48.568;7.870;2023-11-21T13:05:45;2.38;;;2.17;;
7116;SDS011;3600;48.568;7.870;2023-11-21T13:08:18;2.75;;;1.80;;
7116;SDS011;3600;48.568;7.870;2023-11-21T13:10:48;1.90;;;1.80;;
7116;SDS011;3600;48.568;7.870;2023-11-21T13:13:18;1.48;;;1.38;;
7116;SDS011;3600;48.568;7.870;2023-11-21T13:15:50;2.00;;;1.90;;
7116;SDS011;3600;48.568;7.870;2023-11-21T13:18:18;1.80;;;1.70;;
7116;SDS011;3600;48.568;7.870;2023-11-21T13:20:48;2.28;;;2.15;;
7116;SDS011;3600;48.568;7.870;2023-11-21T13:23:16;1.77;;;1.67;;
7116;SDS011;3600;48.568;7.870;2023-11-21T13:25:43;2.00;;;1.90;;
7116;SDS011;3600;48.568;7.870;2023-11-21T13:28:22;2.08;;;1.80;;
7116;SDS011;3600;48.568;7.870;2023-11-21T13:30:50;1.70;;;1.60;;
7116;SDS011;3600;48.568;7.870;2023-11-21T13:33:19;2.15;;;2.05;;
7116;SDS011;3600;48.568;7.870;2023-11-21T13:35:53;1.65;;;1.33;;
7116;SDS011;3600;48.568;7.870;2023-11-21T13:38:22;1.73;;;1.63;;
7116;SDS011;3600;48.568;7.870;2023-11-21T13:40:52;1.85;;;1.75;;
7116;SDS011;3600;48.568;7.870;2023-11-21T13:43:21;1.98;;;1.88;;
7116;SDS011;3600;48.568;7.870;2023-11-21T13:45:52;1.58;;;1.42;;
7116;SDS011;3600;48.568;7.870;2023-11-21T13:48:27;1.45;;;1.30;;
7116;SDS011;3600;48.568;7.870;2023-11-21T13:51:14;1.70;;;1.60;;
7116;SDS011;3600;48.568;7.870;2023-11-21T13:53:47;1.83;;;1.73;;
7116;SDS011;3600;48.568;7.870;2023-11-21T14:02:29;1.60;;;1.50;;
7116;SDS011;3600;48.568;7.870;2023-11-21T14:06:14;1.55;;;1.40;;
7116;SDS011;3600;48.568;7.870;2023-11-21T14:16:59;1.77;;;1.67;;
7116;SDS011;3600;48.568;7.870;2023-11-21T14:20:15;2.25;;;1.80;;
7116;SDS011;3600;48.568;7.870;2023-11-21T14:27:04;2.70;;;2.50;;
7116;SDS011;3600;48.568;7.870;2023-11-21T14:30:54;2.17;;;1.90;;
7116;SDS011;3600;48.568;7.870;2023-11-21T14:33:36;3.28;;;2.55;;
7116;SDS011;3600;48.568;7.870;2023-11-21T14:36:11;1.92;;;1.80;;
7116;SDS011;3600;48.568;7.870;2023-11-21T14:38:53;1.70;;;1.60;;
7116;SDS011;3600;48.568;7.870;2023-11-21T14:41:38;1.95;;;1.85;;
7116;SDS011;3600;48.568;7.870;2023-11-21T14:44:27;3.60;;;2.53;;
7116;SDS011;3600;48.568;7.870;2023-11-21T14:47:18;3.08;;;1.70;;
7116;SDS011;3600;48.568;7.870;2023-11-21T14:50:02;2.05;;;1.63;;
7116;SDS011;3600;48.568;7.870;2023-11-21T14:53:15;1.55;;;1.45;;
7116;SDS011;3600;48.568;7.870;2023-11-21T14:55:57;2.45;;;2.00;;
7116;SDS011;3600;48.568;7.870;2023-11-21T14:58:37;2.42;;;2.17;;
7116;SDS011;3600;48.568;7.870;2023-11-21T15:01:12;2.80;;;2.55;;
7116;SDS011;3600;48.568;7.870;2023-11-21T15:03:42;2.75;;;2.55;;
7116;SDS011;3600;48.568;7.870;2023-11-21T15:06:17;2.65;;;2.45;;
7116;SDS011;3600;48.568;7.870;2023-11-21T15:09:05;2.40;;;2.20;;
7116;SDS011;3600;48.568;7.870;2023-11-21T15:11:36;2.03;;;1.92;;
7116;SDS011;3600;48.568;7.870;2023-11-21T15:14:35;3.17;;;2.78;;
7116;SDS011;3600;48.568;7.870;2023-11-21T15:17:31;3.63;;;3.33;;
7116;SDS011;3600;48.568;7.870;2023-11-21T15:20:02;3.55;;;3.30;;
7116;SDS011;3600;48.568;7.870;2023-11-21T15:23:05;3.17;;;2.88;;
7116;SDS011;3600;48.568;7.870;2023-11-21T15:26:03;3.87;;;3.50;;
7116;SDS011;3600;48.568;7.870;2023-11-21T15:28:47;3.93;;;3.63;;
7116;SDS011;3600;48.568;7.870;2023-11-21T15:31:39;6.75;;;6.15;;
7116;SDS011;3600;48.568;7.870;2023-11-21T15:35:13;4.88;;;4.38;;
7116;SDS011;3600;48.568;7.870;2023-11-21T15:37:47;8.70;;;5.88;;
7116;SDS011;3600;48.568;7.870;2023-11-21T15:40:38;5.90;;;5.38;;
7116;SDS011;3600;48.568;7.870;2023-11-21T15:44:05;4.13;;;3.72;;
7116;SDS011;3600;48.568;7.870;2023-11-21T15:46:51;3.38;;;3.10;;
7116;SDS011;3600;48.568;7.870;2023-11-21T15:49:41;4.30;;;4.00;;
7116;SDS011;3600;48.568;7.870;2023-11-21T15:52:19;7.88;;;6.80;;
7116;SDS011;3600;48.568;7.870;2023-11-21T15:55:01;6.22;;;4.90;;
7116;SDS011;3600;48.568;7.870;2023-11-21T16:05:37;5.45;;;4.95;;
7116;SDS011;3600;48.568;7.870;2023-11-21T16:12:10;6.25;;;5.65;;
7116;SDS011;3600;48.568;7.870;2023-11-21T16:15:10;5.38;;;4.95;;
7116;SDS011;3600;48.568;7.870;2023-11-21T16:22:18;3.97;;;3.58;;
7116;SDS011;3600;48.568;7.870;2023-11-21T16:26:14;3.90;;;3.60;;
7116;SDS011;3600;48.568;7.870;2023-11-21T16:29:36;4.28;;;3.90;;
7116;SDS011;3600;48.568;7.870;2023-11-21T16:32:57;6.17;;;4.70;;
7116;SDS011;3600;48.568;7.870;2023-11-21T16:36:12;5.40;;;4.68;;
7116;SDS011;3600;48.568;7.870;2023-11-21T16:39:26;6.33;;;5.23;;
7116;SDS011;3600;48.568;7.870;2023-11-21T16:42:17;9.00;;;6.70;;
7116;SDS011;3600;48.568;7.870;2023-11-21T16:45:00;7.73;;;6.90;;
7116;SDS011;3600;48.568;7.870;2023-11-21T16:47:45;6.05;;;5.30;;
7116;SDS011;3600;48.568;7.870;2023-11-21T16:50:26;5.27;;;4.87;;
7116;SDS011;3600;48.568;7.870;2023-11-21T16:53:45;6.97;;;6.37;;
7116;SDS011;3600;48.568;7.870;2023-11-21T16:56:25;4.78;;;4.30;;
7116;SDS011;3600;48.568;7.870;2023-11-21T16:59:26;5.25;;;4.13;;
7116;SDS011;3600;48.568;7.870;2023-11-21T17:02:07;3.77;;;3.47;;
7116;SDS011;3600;48.568;7.870;2023-11-21T17:05:07;4.93;;;3.37;;
7116;SDS011;3600;48.568;7.870;2023-11-21T17:07:49;3.90;;;3.60;;
7116;SDS011;3600;48.568;7.870;2023-11-21T17:17:36;4.20;;;3.80;;
7116;SDS011;3600;48.568;7.870;2023-11-21T17:20:32;7.70;;;5.33;;
7116;SDS011;3600;48.568;7.870;2023-11-21T17:23:50;4.77;;;4.30;;
7116;SDS011;3600;48.568;7.870;2023-11-21T17:26:33;5.83;;;5.33;;
7116;SDS011;3600;48.568;7.870;2023-11-21T17:30:04;4.83;;;4.33;;
7116;SDS011;3600;48.568;7.870;2023-11-21T17:33:19;5.53;;;5.03;;
7116;SDS011;3600;48.568;7.870;2023-11-21T17:40:02;5.05;;;4.57;;
7116;SDS011;3600;48.568;7.870;2023-11-21T17:43:08;5.40;;;4.90;;
7116;SDS011;3600;48.568;7.870;2023-11-21T17:46:06;6.00;;;4.80;;
7116;SDS011;3600;48.568;7.870;2023-11-21T17:49:01;5.77;;;5.00;;
7116;SDS011;3600;48.568;7.870;2023-11-21T17:52:18;5.97;;;5.37;;
7116;SDS011;3600;48.568;7.870;2023-11-21T17:55:16;7.63;;;5.23;;
7116;SDS011;3600;48.568;7.870;2023-11-21T17:58:44;5.37;;;4.77;;
7116;SDS011;3600;48.568;7.870;2023-11-21T18:01:46;6.50;;;5.30;;
7116;SDS011;3600;48.568;7.870;2023-11-21T18:08:00;8.63;;;6.83;;
7116;SDS011;3600;48.568;7.870;2023-11-21T18:10:45;8.13;;;7.20;;
7116;SDS011;3600;48.568;7.870;2023-11-21T18:16:41;9.77;;;7.70;;
7116;SDS011;3600;48.568;7.870;2023-11-21T18:19:36;9.33;;;7.77;;
7116;SDS011;3600;48.568;7.870;2023-11-21T18:22:29;7.65;;;6.63;;
7116;SDS011;3600;48.568;7.870;2023-11-21T18:25:19;8.43;;;6.53;;
7116;SDS011;3600;48.568;7.870;2023-11-21T18:34:29;7.57;;;6.77;;
7116;SDS011;3600;48.568;7.870;2023-11-21T18:37:15;7.87;;;6.57;;
7116;SDS011;3600;48.568;7.870;2023-11-21T18:40:12;7.67;;;6.30;;
7116;SDS011;3600;48.568;7.870;2023-11-21T18:43:24;8.43;;;6.50;;
7116;SDS011;3600;48.568;7.870;2023-11-21T18:46:56;8.20;;;6.20;;
7116;SDS011;3600;48.568;7.870;2023-11-21T18:49:28;8.23;;;7.40;;
7116;SDS011;3600;48.568;7.870;2023-11-21T18:52:32;8.27;;;6.03;;
7116;SDS011;3600;48.568;7.870;2023-11-21T18:58:36;8.67;;;5.53;;
7116;SDS011;3600;48.568;7.870;2023-11-21T19:01:31;6.40;;;5.70;;
7116;SDS011;3600;48.568;7.870;2023-11-21T19:08:14;7.93;;;6.77;;
7116;SDS011;3600;48.568;7.870;2023-11-21T19:11:02;8.90;;;7.00;;
7116;SDS011;3600;48.568;7.870;2023-11-21T19:13:48;7.17;;;6.00;;
7116;SDS011;3600;48.568;7.870;2023-11-21T19:16:49;5.80;;;5.20;;
7116;SDS011;3600;48.568;7.870;2023-11-21T19:19:33;5.20;;;4.73;;
7116;SDS011;3600;48.568;7.870;2023-11-21T19:22:03;7.07;;;5.30;;
7116;SDS011;3600;48.568;7.870;2023-11-21T19:24:30;7.57;;;6.13;;
7116;SDS011;3600;48.568;7.870;2023-11-21T19:26:57;7.73;;;6.20;;
7116;SDS011;3600;48.568;7.870;2023-11-21T19:29:23;33.47;;;26.20;;
7116;SDS011;3600;48.568;7.870;2023-11-21T19:31:50;15.83;;;11.73;;
7116;SDS011;3600;48.568;7.870;2023-11-21T19:34:17;17.27;;;15.40;;
7116;SDS011;3600;48.568;7.870;2023-11-21T19:36:45;18.80;;;16.10;;